sensor_id;sensor_type;location;lat;lon;timestamp;pressure;altitude;pressure_sealevel;temperature;humidity
77333;BME280;66408;51.326;12.070;2023-05-07T00:01:11;101131.84;;;11.62;72.82
77333;BME280;66408;51.326;12.070;2023-05-07T00:03:38;101126.75;;;11.55;72.95
77333;BME280;66408;51.326;12.070;2023-05-07T00:06:05;101133.28;;;11.54;73.05
77333;BME280;66408;51.326;12.070;2023-05-07T00:08:32;101124.81;;;11.56;73.23
77333;BME280;66408;51.326;12.070;2023-05-07T00:10:59;101129.75;;;11.53;72.98
77333;BME280;66408;51.326;12.070;2023-05-07T00:13:25;101125.47;;;11.47;73.30
77333;BME280;66408;51.326;12.070;2023-05-07T00:15:52;101125.19;;;11.49;73.15
77333;BME280;66408;51.326;12.070;2023-05-07T00:18:18;101126.75;;;11.55;73.10
77333;BME280;66408;51.326;12.070;2023-05-07T00:20:48;101118.72;;;11.64;72.31
77333;BME280;66408;51.326;12.070;2023-05-07T00:23:15;101126.50;;;11.51;72.97
77333;BME280;66408;51.326;12.070;2023-05-07T00:25:41;101126.91;;;11.40;73.52
77333;BME280;66408;51.326;12.070;2023-05-07T00:28:08;101126.69;;;11.36;73.64
77333;BME280;66408;51.326;12.070;2023-05-07T00:30:34;101136.81;;;11.31;73.71
77333;BME280;66408;51.326;12.070;2023-05-07T00:33:04;101136.03;;;11.25;73.81
77333;BME280;66408;51.326;12.070;2023-05-07T00:35:30;101144.03;;;11.16;74.24
77333;BME280;66408;51.326;12.070;2023-05-07T00:37:57;101150.00;;;11.19;74.19
77333;BME280;66408;51.326;12.070;2023-05-07T00:40:23;101141.66;;;11.10;73.82
77333;BME280;66408;51.326;12.070;2023-05-07T00:42:50;101152.34;;;11.01;74.13
77333;BME280;66408;51.326;12.070;2023-05-07T00:45:25;101150.78;;;10.95;74.24
77333;BME280;66408;51.326;12.070;2023-05-07T00:47:57;101148.91;;;10.91;74.19
77333;BME280;66408;51.326;12.070;2023-05-07T00:50:26;101148.97;;;10.86;74.11
77333;BME280;66408;51.326;12.070;2023-05-07T00:52:53;101151.44;;;10.82;74.36
77333;BME280;66408;51.326;12.070;2023-05-07T00:55:19;101150.66;;;10.76;74.33
77333;BME280;66408;51.326;12.070;2023-05-07T00:57:46;101152.88;;;10.74;74.30
77333;BME280;66408;51.326;12.070;2023-05-07T01:00:13;101161.03;;;10.74;74.20
77333;BME280;66408;51.326;12.070;2023-05-07T01:02:41;101161.25;;;10.78;73.95
77333;BME280;66408;51.326;12.070;2023-05-07T01:05:10;101161.03;;;10.74;74.19
77333;BME280;66408;51.326;12.070;2023-05-07T01:07:40;101155.41;;;10.61;74.40
77333;BME280;66408;51.326;12.070;2023-05-07T01:10:08;101149.34;;;10.74;74.11
77333;BME280;66408;51.326;12.070;2023-05-07T01:12:36;101161.75;;;10.85;73.92
77333;BME280;66408;51.326;12.070;2023-05-07T01:15:05;101158.25;;;10.79;73.62
77333;BME280;66408;51.326;12.070;2023-05-07T01:17:36;101162.66;;;10.75;73.58
77333;BME280;66408;51.326;12.070;2023-05-07T01:20:05;101152.53;;;10.81;73.48
77333;BME280;66408;51.326;12.070;2023-05-07T01:22:35;101157.16;;;10.80;73.61
77333;BME280;66408;51.326;12.070;2023-05-07T01:25:04;101142.19;;;10.83;73.56
77333;BME280;66408;51.326;12.070;2023-05-07T01:27:30;101147.28;;;10.90;73.06
77333;BME280;66408;51.326;12.070;2023-05-07T01:29:57;101149.97;;;10.95;73.20
77333;BME280;66408;51.326;12.070;2023-05-07T01:32:42;101151.59;;;10.96;72.60
77333;BME280;66408;51.326;12.070;2023-05-07T01:35:11;101154.06;;;10.92;72.71
77333;BME280;66408;51.326;12.070;2023-05-07T01:37:39;101148.72;;;10.82;72.92
77333;BME280;66408;51.326;12.070;2023-05-07T01:40:07;101163.66;;;10.85;73.49
77333;BME280;66408;51.326;12.070;2023-05-07T01:42:35;101151.03;;;10.99;72.88
77333;BME280;66408;51.326;12.070;2023-05-07T01:45:02;101153.13;;;11.07;72.53
77333;BME280;66408;51.326;12.070;2023-05-07T01:47:29;101156.03;;;11.15;72.33
77333;BME280;66408;51.326;12.070;2023-05-07T01:49:56;101148.63;;;11.21;72.05
77333;BME280;66408;51.326;12.070;2023-05-07T01:52:24;101150.88;;;11.14;72.40
77333;BME280;66408;51.326;12.070;2023-05-07T01:54:51;101166.69;;;11.12;72.13
77333;BME280;66408;51.326;12.070;2023-05-07T01:57:18;101158.59;;;11.02;72.41
77333;BME280;66408;51.326;12.070;2023-05-07T01:59:44;101160.81;;;11.00;72.51
77333;BME280;66408;51.326;12.070;2023-05-07T02:02:11;101159.38;;;11.07;72.44
77333;BME280;66408;51.326;12.070;2023-05-07T02:04:37;101161.25;;;11.12;72.25
77333;BME280;66408;51.326;12.070;2023-05-07T02:07:04;101162.13;;;11.02;72.17
77333;BME280;66408;51.326;12.070;2023-05-07T02:09:30;101152.59;;;11.05;72.51
77333;BME280;66408;51.326;12.070;2023-05-07T02:11:57;101155.41;;;10.95;72.51
77333;BME280;66408;51.326;12.070;2023-05-07T02:14:23;101160.88;;;10.90;72.74
77333;BME280;66408;51.326;12.070;2023-05-07T02:16:50;101157.94;;;10.86;72.99
77333;BME280;66408;51.326;12.070;2023-05-07T02:19:16;101155.72;;;10.88;73.09
77333;BME280;66408;51.326;12.070;2023-05-07T02:21:44;101157.59;;;10.93;72.77
77333;BME280;66408;51.326;12.070;2023-05-07T02:24:10;101157.03;;;10.96;72.60
77333;BME280;66408;51.326;12.070;2023-05-07T02:26:36;101161.66;;;10.95;72.48
77333;BME280;66408;51.326;12.070;2023-05-07T02:29:03;101167.72;;;10.87;72.73
77333;BME280;66408;51.326;12.070;2023-05-07T02:31:29;101162.03;;;10.84;73.14
77333;BME280;66408;51.326;12.070;2023-05-07T02:33:56;101164.03;;;10.73;73.59
77333;BME280;66408;51.326;12.070;2023-05-07T02:36:23;101163.66;;;10.85;72.93
77333;BME280;66408;51.326;12.070;2023-05-07T02:38:49;101166.41;;;10.79;73.09
77333;BME280;66408;51.326;12.070;2023-05-07T02:41:16;101173.44;;;10.86;72.96
77333;BME280;66408;51.326;12.070;2023-05-07T02:43:42;101177.00;;;10.81;73.12
77333;BME280;66408;51.326;12.070;2023-05-07T02:46:09;101175.56;;;10.89;72.97
77333;BME280;66408;51.326;12.070;2023-05-07T02:48:36;101181.28;;;10.92;72.83
77333;BME280;66408;51.326;12.070;2023-05-07T02:51:02;101177.19;;;10.95;72.89
77333;BME280;66408;51.326;12.070;2023-05-07T02:53:29;101179.06;;;10.99;72.64
77333;BME280;66408;51.326;12.070;2023-05-07T02:55:57;101184.00;;;10.92;73.13
77333;BME280;66408;51.326;12.070;2023-05-07T02:58:24;101186.41;;;10.99;72.52
77333;BME280;66408;51.326;12.070;2023-05-07T03:00:51;101181.97;;;11.08;72.39
77333;BME280;66408;51.326;12.070;2023-05-07T03:03:17;101179.88;;;11.00;72.21
77333;BME280;66408;51.326;12.070;2023-05-07T03:05:44;101180.09;;;11.03;72.07
77333;BME280;66408;51.326;12.070;2023-05-07T03:08:11;101172.78;;;10.99;72.42
77333;BME280;66408;51.326;12.070;2023-05-07T03:10:37;101170.44;;;10.87;73.04
77333;BME280;66408;51.326;12.070;2023-05-07T03:13:04;101175.03;;;10.92;72.66
77333;BME280;66408;51.326;12.070;2023-05-07T03:15:31;101173.66;;;10.94;72.70
77333;BME280;66408;51.326;12.070;2023-05-07T03:17:57;101174.34;;;11.05;72.33
77333;BME280;66408;51.326;12.070;2023-05-07T03:20:24;101175.84;;;10.92;72.37
77333;BME280;66408;51.326;12.070;2023-05-07T03:22:51;101170.91;;;10.94;72.32
77333;BME280;66408;51.326;12.070;2023-05-07T03:25:17;101170.09;;;10.94;72.54
77333;BME280;66408;51.326;12.070;2023-05-07T03:27:43;101162.78;;;10.89;72.37
77333;BME280;66408;51.326;12.070;2023-05-07T03:30:11;101177.19;;;10.95;72.39
77333;BME280;66408;51.326;12.070;2023-05-07T03:32:38;101176.84;;;11.01;72.39
77333;BME280;66408;51.326;12.070;2023-05-07T03:35:05;101173.03;;;11.02;71.94
77333;BME280;66408;51.326;12.070;2023-05-07T03:37:31;101172.53;;;10.95;72.47
77333;BME280;66408;51.326;12.070;2023-05-07T03:39:58;101172.03;;;10.88;72.31
77333;BME280;66408;51.326;12.070;2023-05-07T03:42:24;101182.94;;;10.88;72.61
77333;BME280;66408;51.326;12.070;2023-05-07T03:44:51;101179.19;;;10.84;72.75
77333;BME280;66408;51.326;12.070;2023-05-07T03:47:17;101186.00;;;10.82;72.90
77333;BME280;66408;51.326;12.070;2023-05-07T03:49:43;101186.78;;;10.87;72.82
77333;BME280;66408;51.326;12.070;2023-05-07T03:52:10;101185.72;;;10.83;72.58
77333;BME280;66408;51.326;12.070;2023-05-07T03:54:36;101191.22;;;10.73;72.65
77333;BME280;66408;51.326;12.070;2023-05-07T03:57:03;101197.22;;;10.75;72.96
77333;BME280;66408;51.326;12.070;2023-05-07T03:59:29;101194.72;;;10.78;72.71
77333;BME280;66408;51.326;12.070;2023-05-07T04:01:56;101184.41;;;10.75;72.96
77333;BME280;66408;51.326;12.070;2023-05-07T04:04:22;101184.97;;;10.72;72.86
77333;BME280;66408;51.326;12.070;2023-05-07T04:06:49;101184.44;;;10.70;73.09
77333;BME280;66408;51.326;12.070;2023-05-07T04:09:16;101188.72;;;10.82;72.67
77333;BME280;66408;51.326;12.070;2023-05-07T04:11:42;101186.53;;;10.84;72.38
77333;BME280;66408;51.326;12.070;2023-05-07T04:14:09;101190.63;;;10.81;72.44
77333;BME280;66408;51.326;12.070;2023-05-07T04:16:35;101197.41;;;10.84;72.48
77333;BME280;66408;51.326;12.070;2023-05-07T04:19:02;101203.22;;;10.72;72.88
77333;BME280;66408;51.326;12.070;2023-05-07T04:21:28;101189.06;;;10.70;72.85
77333;BME280;66408;51.326;12.070;2023-05-07T04:23:55;101191.22;;;10.73;72.86
77333;BME280;66408;51.326;12.070;2023-05-07T04:26:22;101202.19;;;10.63;73.27
77333;BME280;66408;51.326;12.070;2023-05-07T04:28:49;101210.66;;;10.56;73.50
77333;BME280;66408;51.326;12.070;2023-05-07T04:31:16;101214.44;;;10.60;73.65
77333;BME280;66408;51.326;12.070;2023-05-07T04:33:45;101219.28;;;10.63;73.74
77333;BME280;66408;51.326;12.070;2023-05-07T04:36:11;101211.47;;;10.57;73.58
77333;BME280;66408;51.326;12.070;2023-05-07T04:38:38;101215.47;;;10.64;73.66
77333;BME280;66408;51.326;12.070;2023-05-07T04:41:06;101208.66;;;10.67;73.62
77333;BME280;66408;51.326;12.070;2023-05-07T04:43:32;101204.94;;;10.53;73.71
77333;BME280;66408;51.326;12.070;2023-05-07T04:45:59;101200.94;;;10.40;74.32
77333;BME280;66408;51.326;12.070;2023-05-07T04:48:25;101211.53;;;10.47;74.42
77333;BME280;66408;51.326;12.070;2023-05-07T04:50:52;101221.31;;;10.48;74.13
77333;BME280;66408;51.326;12.070;2023-05-07T04:53:19;101223.75;;;10.49;74.52
77333;BME280;66408;51.326;12.070;2023-05-07T04:55:46;101230.78;;;10.55;74.14
77333;BME280;66408;51.326;12.070;2023-05-07T04:58:12;101222.63;;;10.55;73.96
77333;BME280;66408;51.326;12.070;2023-05-07T05:00:39;101215.81;;;10.58;74.09
77333;BME280;66408;51.326;12.070;2023-05-07T05:03:08;101220.16;;;10.59;74.06
77333;BME280;66408;51.326;12.070;2023-05-07T05:05:34;101226.97;;;10.56;73.69
77333;BME280;66408;51.326;12.070;2023-05-07T05:08:01;101230.78;;;10.55;73.97
77333;BME280;66408;51.326;12.070;2023-05-07T05:10:27;101236.97;;;10.66;73.82
77333;BME280;66408;51.326;12.070;2023-05-07T05:12:54;101240.22;;;10.68;73.29
77333;BME280;66408;51.326;12.070;2023-05-07T05:15:21;101229.06;;;10.69;73.28
77333;BME280;66408;51.326;12.070;2023-05-07T05:17:47;101233.38;;;10.75;73.27
77333;BME280;66408;51.326;12.070;2023-05-07T05:20:14;101237.16;;;10.79;72.92
77333;BME280;66408;51.326;12.070;2023-05-07T05:22:41;101242.63;;;10.74;73.12
77333;BME280;66408;51.326;12.070;2023-05-07T05:25:08;101242.00;;;10.88;72.99
77333;BME280;66408;51.326;12.070;2023-05-07T05:27:35;101241.47;;;10.86;72.83
77333;BME280;66408;51.326;12.070;2023-05-07T05:30:03;101249.34;;;10.87;72.93
77333;BME280;66408;51.326;12.070;2023-05-07T05:32:29;101250.38;;;10.91;72.48
77333;BME280;66408;51.326;12.070;2023-05-07T05:34:56;101261.06;;;10.88;72.41
77333;BME280;66408;51.326;12.070;2023-05-07T05:37:23;101260.75;;;10.89;72.72
77333;BME280;66408;51.326;12.070;2023-05-07T05:39:49;101262.34;;;10.95;72.44
77333;BME280;66408;51.326;12.070;2023-05-07T05:42:16;101258.44;;;11.06;72.05
77333;BME280;66408;51.326;12.070;2023-05-07T05:44:42;101261.97;;;11.12;71.83
77333;BME280;66408;51.326;12.070;2023-05-07T05:47:08;101261.34;;;11.20;71.76
77333;BME280;66408;51.326;12.070;2023-05-07T05:49:35;101263.22;;;11.25;71.46
77333;BME280;66408;51.326;12.070;2023-05-07T05:52:01;101257.81;;;11.20;71.13
77333;BME280;66408;51.326;12.070;2023-05-07T05:54:28;101262.59;;;11.33;71.20
77333;BME280;66408;51.326;12.070;2023-05-07T05:56:54;101266.50;;;11.22;71.46
77333;BME280;66408;51.326;12.070;2023-05-07T05:59:21;101260.34;;;11.40;71.26
77333;BME280;66408;51.326;12.070;2023-05-07T06:01:47;101263.66;;;11.37;71.08
77333;BME280;66408;51.326;12.070;2023-05-07T06:04:14;101262.25;;;11.39;70.70
77333;BME280;66408;51.326;12.070;2023-05-07T06:06:41;101264.13;;;11.44;70.25
77333;BME280;66408;51.326;12.070;2023-05-07T06:09:07;101262.06;;;11.31;70.76
77333;BME280;66408;51.326;12.070;2023-05-07T06:11:34;101260.63;;;11.38;70.43
77333;BME280;66408;51.326;12.070;2023-05-07T06:14:00;101258.09;;;11.18;70.61
77333;BME280;66408;51.326;12.070;2023-05-07T06:16:27;101264.09;;;11.15;71.32
77333;BME280;66408;51.326;12.070;2023-05-07T06:18:53;101261.72;;;11.03;71.38
77333;BME280;66408;51.326;12.070;2023-05-07T06:21:20;101272.78;;;11.17;71.12
77333;BME280;66408;51.326;12.070;2023-05-07T06:23:46;101283.41;;;11.19;71.23
77333;BME280;66408;51.326;12.070;2023-05-07T06:26:13;101280.69;;;11.19;71.00
77333;BME280;66408;51.326;12.070;2023-05-07T06:28:39;101271.66;;;11.23;70.76
77333;BME280;66408;51.326;12.070;2023-05-07T06:33:39;101285.72;;;11.35;70.37
77333;BME280;66408;51.326;12.070;2023-05-07T06:36:06;101287.66;;;11.30;70.73
77333;BME280;66408;51.326;12.070;2023-05-07T06:38:33;101284.41;;;11.28;70.83
77333;BME280;66408;51.326;12.070;2023-05-07T06:41:00;101282.78;;;11.27;71.09
77333;BME280;66408;51.326;12.070;2023-05-07T06:43:26;101292.28;;;11.29;71.34
77333;BME280;66408;51.326;12.070;2023-05-07T06:45:53;101291.81;;;11.22;71.14
77333;BME280;66408;51.326;12.070;2023-05-07T06:48:19;101297.75;;;11.29;70.49
77333;BME280;66408;51.326;12.070;2023-05-07T06:50:46;101292.19;;;11.39;70.24
77333;BME280;66408;51.326;12.070;2023-05-07T06:53:12;101289.75;;;11.38;70.51
77333;BME280;66408;51.326;12.070;2023-05-07T06:55:39;101299.63;;;11.34;70.71
77333;BME280;66408;51.326;12.070;2023-05-07T06:58:05;101297.44;;;11.36;71.01
77333;BME280;66408;51.326;12.070;2023-05-07T07:00:32;101301.84;;;11.27;70.47
77333;BME280;66408;51.326;12.070;2023-05-07T07:02:58;101290.75;;;11.18;70.30
77333;BME280;66408;51.326;12.070;2023-05-07T07:05:26;101297.00;;;11.19;70.38
77333;BME280;66408;51.326;12.070;2023-05-07T07:07:53;101295.94;;;11.14;70.43
77333;BME280;66408;51.326;12.070;2023-05-07T07:10:20;101290.78;;;11.13;71.00
77333;BME280;66408;51.326;12.070;2023-05-07T07:12:46;101289.94;;;11.18;70.56
77333;BME280;66408;51.326;12.070;2023-05-07T07:15:13;101277.63;;;11.25;70.63
77333;BME280;66408;51.326;12.070;2023-05-07T07:17:40;101280.88;;;11.27;70.41
77333;BME280;66408;51.326;12.070;2023-05-07T07:20:07;101289.63;;;11.24;70.54
77333;BME280;66408;51.326;12.070;2023-05-07T07:22:36;101291.81;;;11.22;70.34
77333;BME280;66408;51.326;12.070;2023-05-07T07:25:03;101297.81;;;11.19;69.75
77333;BME280;66408;51.326;12.070;2023-05-07T07:27:30;101298.94;;;11.13;69.25
77333;BME280;66408;51.326;12.070;2023-05-07T07:29:56;101300.34;;;11.10;69.76
77333;BME280;66408;51.326;12.070;2023-05-07T07:32:23;101301.44;;;11.09;69.68
77333;BME280;66408;51.326;12.070;2023-05-07T07:34:49;101301.16;;;11.11;69.60
77333;BME280;66408;51.326;12.070;2023-05-07T07:37:15;101298.66;;;11.14;69.54
77333;BME280;66408;51.326;12.070;2023-05-07T07:39:42;101299.94;;;11.27;69.71
77333;BME280;66408;51.326;12.070;2023-05-07T07:42:08;101306.53;;;11.50;69.65
77333;BME280;66408;51.326;12.070;2023-05-07T07:44:35;101304.47;;;11.71;68.98
77333;BME280;66408;51.326;12.070;2023-05-07T07:47:10;101315.44;;;11.95;67.70
77333;BME280;66408;51.326;12.070;2023-05-07T07:49:37;101310.44;;;12.02;66.74
77333;BME280;66408;51.326;12.070;2023-05-07T07:52:04;101317.19;;;12.09;66.93
77333;BME280;66408;51.326;12.070;2023-05-07T07:54:31;101318.81;;;12.10;67.20
77333;BME280;66408;51.326;12.070;2023-05-07T07:56:57;101321.34;;;12.02;67.12
77333;BME280;66408;51.326;12.070;2023-05-07T07:59:24;101320.34;;;11.93;66.72
77333;BME280;66408;51.326;12.070;2023-05-07T08:01:51;101322.63;;;11.85;67.05
77333;BME280;66408;51.326;12.070;2023-05-07T08:04:21;101325.19;;;11.67;67.75
77333;BME280;66408;51.326;12.070;2023-05-07T08:06:48;101332.28;;;11.68;67.75
77333;BME280;66408;51.326;12.070;2023-05-07T08:09:14;101341.19;;;11.78;67.48
77333;BME280;66408;51.326;12.070;2023-05-07T08:11:41;101339.81;;;11.81;66.82
77333;BME280;66408;51.326;12.070;2023-05-07T08:14:07;101344.44;;;11.80;67.01
77333;BME280;66408;51.326;12.070;2023-05-07T08:16:34;101352.06;;;11.83;66.23
77333;BME280;66408;51.326;12.070;2023-05-07T08:19:00;101348.56;;;11.78;66.21
77333;BME280;66408;51.326;12.070;2023-05-07T08:21:27;101339.88;;;11.71;65.75
77333;BME280;66408;51.326;12.070;2023-05-07T08:23:54;101339.63;;;11.67;67.08
77333;BME280;66408;51.326;12.070;2023-05-07T08:26:20;101344.72;;;11.79;66.19
77333;BME280;66408;51.326;12.070;2023-05-07T08:28:47;101342.25;;;11.82;66.11
77333;BME280;66408;51.326;12.070;2023-05-07T08:31:13;101343.16;;;11.68;65.53
77333;BME280;66408;51.326;12.070;2023-05-07T08:33:40;101345.44;;;11.61;65.98
77333;BME280;66408;51.326;12.070;2023-05-07T08:36:06;101342.63;;;11.66;65.83
77333;BME280;66408;51.326;12.070;2023-05-07T08:38:33;101350.78;;;11.71;65.19
77333;BME280;66408;51.326;12.070;2023-05-07T08:40:59;101346.31;;;11.51;65.72
77333;BME280;66408;51.326;12.070;2023-05-07T08:43:27;101351.44;;;11.58;66.00
77333;BME280;66408;51.326;12.070;2023-05-07T08:45:54;101356.16;;;11.47;65.93
77333;BME280;66408;51.326;12.070;2023-05-07T08:48:24;101358.44;;;11.64;66.28
77333;BME280;66408;51.326;12.070;2023-05-07T08:50:51;101353.59;;;11.61;65.78
77333;BME280;66408;51.326;12.070;2023-05-07T08:53:19;101350.94;;;11.50;65.80
77333;BME280;66408;51.326;12.070;2023-05-07T08:55:47;101347.38;;;11.55;66.07
77333;BME280;66408;51.326;12.070;2023-05-07T08:58:14;101355.88;;;11.48;65.58
77333;BME280;66408;51.326;12.070;2023-05-07T09:00:41;101363.16;;;11.58;65.85
77333;BME280;66408;51.326;12.070;2023-05-07T09:03:08;101366.31;;;11.70;66.05
77333;BME280;66408;51.326;12.070;2023-05-07T09:05:38;101364.94;;;12.02;65.47
77333;BME280;66408;51.326;12.070;2023-05-07T09:08:06;101361.38;;;12.06;63.87
77333;BME280;66408;51.326;12.070;2023-05-07T09:10:33;101355.00;;;12.16;64.22
77333;BME280;66408;51.326;12.070;2023-05-07T09:13:00;101354.81;;;12.07;63.76
77333;BME280;66408;51.326;12.070;2023-05-07T09:15:28;101355.47;;;12.23;63.11
77333;BME280;66408;51.326;12.070;2023-05-07T09:17:59;101360.03;;;12.28;63.68
77333;BME280;66408;51.326;12.070;2023-05-07T09:20:28;101362.22;;;12.31;63.38
77333;BME280;66408;51.326;12.070;2023-05-07T09:22:56;101358.59;;;12.11;63.68
77333;BME280;66408;51.326;12.070;2023-05-07T09:25:29;101363.06;;;12.26;64.02
77333;BME280;66408;51.326;12.070;2023-05-07T09:27:56;101360.97;;;12.18;63.82
77333;BME280;66408;51.326;12.070;2023-05-07T09:30:27;101357.72;;;12.16;63.85
77333;BME280;66408;51.326;12.070;2023-05-07T09:32:53;101354.88;;;12.02;64.10
77333;BME280;66408;51.326;12.070;2023-05-07T09:35:20;101363.53;;;12.09;65.01
77333;BME280;66408;51.326;12.070;2023-05-07T09:37:54;101364.06;;;12.11;64.56
77333;BME280;66408;51.326;12.070;2023-05-07T09:40:29;101360.31;;;12.02;64.39
77333;BME280;66408;51.326;12.070;2023-05-07T09:42:56;101362.44;;;11.81;64.44
77333;BME280;66408;51.326;12.070;2023-05-07T09:45:28;101349.34;;;11.83;64.75
77333;BME280;66408;51.326;12.070;2023-05-07T09:47:56;101365.88;;;11.92;65.01
77333;BME280;66408;51.326;12.070;2023-05-07T09:50:27;101363.16;;;11.92;64.47
77333;BME280;66408;51.326;12.070;2023-05-07T09:52:55;101367.03;;;11.86;64.54
77333;BME280;66408;51.326;12.070;2023-05-07T09:55:23;101368.06;;;11.90;63.83
77333;BME280;66408;51.326;12.070;2023-05-07T09:57:53;101366.44;;;11.89;64.76
77333;BME280;66408;51.326;12.070;2023-05-07T10:00:22;101367.88;;;11.81;64.88
77333;BME280;66408;51.326;12.070;2023-05-07T10:02:51;101372.81;;;11.79;65.21
77333;BME280;66408;51.326;12.070;2023-05-07T10:05:19;101370.31;;;11.83;64.71
77333;BME280;66408;51.326;12.070;2023-05-07T10:07:50;101378.97;;;11.90;64.47
77333;BME280;66408;51.326;12.070;2023-05-07T10:10:17;101369.41;;;11.93;64.03
77333;BME280;66408;51.326;12.070;2023-05-07T10:12:44;101374.81;;;11.98;64.71
77333;BME280;66408;51.326;12.070;2023-05-07T10:15:12;101365.91;;;11.87;64.34
77333;BME280;66408;51.326;12.070;2023-05-07T10:17:39;101375.16;;;11.91;65.34
77333;BME280;66408;51.326;12.070;2023-05-07T10:20:07;101380.06;;;11.89;65.64
77333;BME280;66408;51.326;12.070;2023-05-07T10:22:45;101373.28;;;11.86;65.81
77333;BME280;66408;51.326;12.070;2023-05-07T10:25:33;101375.09;;;11.96;65.98
77333;BME280;66408;51.326;12.070;2023-05-07T10:28:08;101378.31;;;12.03;66.09
77333;BME280;66408;51.326;12.070;2023-05-07T10:33:20;101380.84;;;11.95;64.73
77333;BME280;66408;51.326;12.070;2023-05-07T10:35:48;101384.31;;;12.00;65.59
77333;BME280;66408;51.326;12.070;2023-05-07T10:38:15;101380.75;;;12.05;64.88
77333;BME280;66408;51.326;12.070;2023-05-07T10:40:41;101380.03;;;11.94;64.66
77333;BME280;66408;51.326;12.070;2023-05-07T10:43:08;101377.06;;;11.91;65.53
77333;BME280;66408;51.326;12.070;2023-05-07T10:45:36;101384.31;;;12.00;65.02
77333;BME280;66408;51.326;12.070;2023-05-07T10:48:13;101384.28;;;12.05;64.45
77333;BME280;66408;51.326;12.070;2023-05-07T10:50:44;101379.44;;;12.26;64.60
77333;BME280;66408;51.326;12.070;2023-05-07T10:55:52;101383.78;;;12.27;64.50
77333;BME280;66408;51.326;12.070;2023-05-07T10:58:38;101375.75;;;12.12;64.21
77333;BME280;66408;51.326;12.070;2023-05-07T11:01:04;101373.91;;;12.07;64.16
77333;BME280;66408;51.326;12.070;2023-05-07T11:03:31;101385.66;;;12.03;64.59
77333;BME280;66408;51.326;12.070;2023-05-07T11:09:05;101387.78;;;11.82;64.25
77333;BME280;66408;51.326;12.070;2023-05-07T11:11:44;101387.63;;;11.97;64.49
77333;BME280;66408;51.326;12.070;2023-05-07T11:14:14;101383.66;;;12.13;65.00
77333;BME280;66408;51.326;12.070;2023-05-07T11:16:42;101374.09;;;12.40;64.03
77333;BME280;66408;51.326;12.070;2023-05-07T11:19:09;101367.81;;;12.63;62.70
77333;BME280;66408;51.326;12.070;2023-05-07T11:21:38;101371.59;;;12.67;62.39
77333;BME280;66408;51.326;12.070;2023-05-07T11:24:06;101375.72;;;12.65;62.65
77333;BME280;66408;51.326;12.070;2023-05-07T11:26:44;101382.56;;;12.62;62.52
77333;BME280;66408;51.326;12.070;2023-05-07T11:29:13;101385.41;;;12.52;62.79
77333;BME280;66408;51.326;12.070;2023-05-07T11:31:40;101382.75;;;12.47;63.16
77333;BME280;66408;51.326;12.070;2023-05-07T11:34:07;101381.34;;;12.49;63.54
77333;BME280;66408;51.326;12.070;2023-05-07T11:36:34;101379.91;;;12.57;63.66
77333;BME280;66408;51.326;12.070;2023-05-07T11:39:00;101373.09;;;12.54;62.99
77333;BME280;66408;51.326;12.070;2023-05-07T11:41:35;101375.72;;;12.65;62.98
77333;BME280;66408;51.326;12.070;2023-05-07T11:44:03;101374.84;;;12.69;61.95
77333;BME280;66408;51.326;12.070;2023-05-07T11:46:29;101370.44;;;12.73;61.38
77333;BME280;66408;51.326;12.070;2023-05-07T11:48:56;101370.00;;;12.85;62.63
77333;BME280;66408;51.326;12.070;2023-05-07T11:51:24;101365.88;;;12.87;62.41
77333;BME280;66408;51.326;12.070;2023-05-07T11:53:52;101367.97;;;12.95;62.06
77333;BME280;66408;51.326;12.070;2023-05-07T11:56:19;101373.47;;;12.90;62.28
77333;BME280;66408;51.326;12.070;2023-05-07T11:58:47;101370.94;;;12.75;61.96
77333;BME280;66408;51.326;12.070;2023-05-07T12:01:14;101364.16;;;12.73;62.00
77333;BME280;66408;51.326;12.070;2023-05-07T12:03:44;101372.75;;;12.85;63.13
77333;BME280;66408;51.326;12.070;2023-05-07T12:06:15;101377.41;;;13.03;62.38
77333;BME280;66408;51.326;12.070;2023-05-07T12:08:43;101371.13;;;13.03;60.96
77333;BME280;66408;51.326;12.070;2023-05-07T12:11:15;101371.94;;;13.03;60.69
77333;BME280;66408;51.326;12.070;2023-05-07T12:13:44;101366.91;;;12.91;60.77
77333;BME280;66408;51.326;12.070;2023-05-07T12:16:10;101368.53;;;12.92;61.72
77333;BME280;66408;51.326;12.070;2023-05-07T12:18:37;101370.31;;;12.83;61.58
77333;BME280;66408;51.326;12.070;2023-05-07T12:21:05;101371.69;;;12.81;61.87
77333;BME280;66408;51.326;12.070;2023-05-07T12:23:33;101370.00;;;12.85;62.12
77333;BME280;66408;51.326;12.070;2023-05-07T12:26:00;101374.09;;;12.64;62.62
77333;BME280;66408;51.326;12.070;2023-05-07T12:28:28;101372.47;;;12.63;61.87
77333;BME280;66408;51.326;12.070;2023-05-07T12:30:54;101380.16;;;12.61;62.20
77333;BME280;66408;51.326;12.070;2023-05-07T12:33:25;101368.09;;;12.85;62.10
77333;BME280;66408;51.326;12.070;2023-05-07T12:35:54;101373.31;;;13.01;60.88
77333;BME280;66408;51.326;12.070;2023-05-07T12:38:22;101371.13;;;13.03;60.90
77333;BME280;66408;51.326;12.070;2023-05-07T12:40:54;101373.84;;;13.03;62.17
77333;BME280;66408;51.326;12.070;2023-05-07T12:43:24;101370.78;;;13.09;61.07
77333;BME280;66408;51.326;12.070;2023-05-07T12:45:53;101373.31;;;13.01;61.17
77333;BME280;66408;51.326;12.070;2023-05-07T12:48:21;101381.09;;;12.93;60.75
77333;BME280;66408;51.326;12.070;2023-05-07T12:50:53;101375.41;;;13.09;60.46
77333;BME280;66408;51.326;12.070;2023-05-07T12:53:21;101370.94;;;13.18;60.98